createdAt,value
2023-03-28T00:00:42.041Z,97932.63
2023-03-28T00:03:08.974Z,97989.56
2023-03-28T00:05:40.109Z,97936.34
2023-03-28T00:08:06.894Z,98009.00
2023-03-28T00:10:33.801Z,97986.88
2023-03-28T00:13:00.611Z,97951.00
2023-03-28T00:15:28.687Z,97946.72
2023-03-28T00:17:55.280Z,97908.50
2023-03-28T00:20:21.864Z,97932.75
2023-03-28T00:22:49.460Z,97777.56
2023-03-28T00:25:16.086Z,97937.06
2023-03-28T00:27:42.629Z,97953.41
2023-03-28T00:30:09.682Z,97728.44
2023-03-28T00:32:36.240Z,97984.63
2023-03-28T00:35:02.928Z,97959.19
2023-03-28T00:37:29.918Z,97843.22
2023-03-28T00:40:01.711Z,97994.09
2023-03-28T00:42:28.542Z,97945.06
2023-03-28T00:44:58.506Z,97984.28
2023-03-28T00:47:27.936Z,98060.28
2023-03-28T00:49:56.631Z,97970.41
2023-03-28T00:52:24.199Z,97966.69
2023-03-28T00:54:51.063Z,97997.28
2023-03-28T00:57:17.730Z,98051.19
2023-03-28T00:59:44.319Z,97961.16
2023-03-28T01:02:11.335Z,98038.06
2023-03-28T01:04:42.455Z,97830.28
2023-03-28T01:07:08.958Z,97949.88
2023-03-28T01:09:35.829Z,98042.50
2023-03-28T01:12:02.391Z,97988.09
2023-03-28T01:14:29.117Z,98003.19
2023-03-28T01:16:57.603Z,97961.25
2023-03-28T01:19:27.049Z,98076.63
2023-03-28T01:22:18.427Z,98078.41
2023-03-28T01:25:00.394Z,98088.59
2023-03-28T01:27:37.945Z,97934.84
2023-03-28T01:30:34.105Z,98086.97
2023-03-28T01:34:02.062Z,98091.28
2023-03-28T01:36:51.562Z,98018.56
2023-03-28T01:39:35.819Z,98108.31
2023-03-28T01:42:30.555Z,98107.44
2023-03-28T01:45:07.204Z,98009.59
2023-03-28T01:47:40.437Z,98110.06
2023-03-28T01:50:19.693Z,97820.31
2023-03-28T01:53:22.902Z,98024.59
2023-03-28T01:55:54.008Z,98111.75
2023-03-28T01:58:27.239Z,98109.34
2023-03-28T02:00:58.040Z,98120.31
2023-03-28T02:03:27.961Z,97925.69
2023-03-28T02:05:55.469Z,97970.41
2023-03-28T02:08:22.304Z,97896.72
2023-03-28T02:10:49.397Z,98097.84
2023-03-28T02:13:18.340Z,97993.69
2023-03-28T02:15:46.777Z,98060.41
2023-03-28T02:18:20.563Z,98116.19
2023-03-28T02:20:50.582Z,98118.72
2023-03-28T02:23:29.686Z,98133.22
2023-03-28T02:26:02.373Z,98123.00
2023-03-28T02:28:28.924Z,97934.72
2023-03-28T02:30:55.609Z,97835.50
2023-03-28T02:33:43.825Z,97936.16
2023-03-28T02:36:29.176Z,98121.34
2023-03-28T02:39:29.558Z,97876.66
2023-03-28T02:42:08.429Z,98129.88
2023-03-28T02:45:15.943Z,98127.34
2023-03-28T02:48:22.011Z,97833.03
2023-03-28T02:51:01.477Z,97719.94
2023-03-28T02:53:59.194Z,97943.72
2023-03-28T02:56:33.816Z,98134.97
2023-03-28T02:59:04.752Z,98133.28
2023-03-28T03:01:31.420Z,97844.09
2023-03-28T03:04:01.320Z,98094.78
2023-03-28T03:06:27.971Z,97810.94
2023-03-28T03:08:54.490Z,98131.34
2023-03-28T03:11:24.313Z,98112.84
2023-03-28T03:13:51.056Z,97814.13
2023-03-28T03:16:18.587Z,98036.03
2023-03-28T03:18:45.280Z,97947.00
2023-03-28T03:21:14.720Z,98068.28
2023-03-28T03:23:41.376Z,97756.84
2023-03-28T03:26:08.085Z,97797.78
2023-03-28T03:28:38.083Z,97975.72
2023-03-28T03:31:04.807Z,98109.34
2023-03-28T03:33:32.752Z,97945.53
2023-03-28T03:35:59.822Z,97850.66
2023-03-28T03:38:26.735Z,97864.78
2023-03-28T03:40:53.560Z,98147.88
2023-03-28T03:43:23.344Z,97641.03
2023-03-28T03:45:50.066Z,98066.22
2023-03-28T03:48:16.794Z,97612.53
2023-03-28T03:50:46.000Z,97677.72
2023-03-28T03:53:14.683Z,97904.72
2023-03-28T03:55:41.320Z,97449.22
2023-03-28T03:58:09.413Z,97562.56
2023-03-28T04:00:37.634Z,97562.88
2023-03-28T04:03:04.414Z,98024.47
2023-03-28T04:05:31.093Z,97060.56
2023-03-28T04:08:01.727Z,97431.50
2023-03-28T04:10:28.443Z,97820.22
2023-03-28T04:12:57.368Z,97192.06
2023-03-28T04:15:26.082Z,97249.44
2023-03-28T04:17:56.931Z,97551.78
2023-03-28T04:20:27.572Z,97089.34
2023-03-28T04:22:54.907Z,97746.13
2023-03-28T04:25:21.833Z,98180.22
2023-03-28T04:27:48.917Z,98184.41
2023-03-28T04:30:18.020Z,97777.66
2023-03-28T04:32:49.715Z,97718.09
2023-03-28T04:35:16.681Z,97746.94
2023-03-28T04:37:43.660Z,97584.41
2023-03-28T04:40:10.937Z,97474.75
2023-03-28T04:42:50.560Z,97073.53
2023-03-28T04:45:18.897Z,97297.63
2023-03-28T04:47:48.827Z,97545.50
2023-03-28T04:50:15.599Z,97540.78
2023-03-28T04:52:43.531Z,97416.97
2023-03-28T04:55:13.050Z,97475.81
2023-03-28T04:57:43.110Z,97361.16
2023-03-28T05:00:10.750Z,97310.09
2023-03-28T05:02:37.690Z,97525.44
2023-03-28T05:05:07.830Z,97385.94
2023-03-28T05:07:37.036Z,97361.34
2023-03-28T05:10:04.317Z,97535.94
2023-03-28T05:12:33.006Z,97879.06
2023-03-28T05:14:59.720Z,97670.72
2023-03-28T05:17:26.347Z,96937.53
2023-03-28T05:19:52.969Z,97464.31
2023-03-28T05:22:19.500Z,98189.69
2023-03-28T05:24:46.009Z,98149.69
2023-03-28T05:27:12.636Z,98175.19
2023-03-28T05:29:39.423Z,98119.66
2023-03-28T05:32:06.083Z,98189.59
2023-03-28T05:34:34.184Z,98190.84
2023-03-28T05:37:00.725Z,98144.50
2023-03-28T05:39:27.371Z,98108.72
2023-03-28T05:41:53.925Z,98150.66
2023-03-28T05:44:20.574Z,98227.47
2023-03-28T05:46:47.109Z,98005.03
2023-03-28T05:49:14.481Z,97972.88
2023-03-28T05:51:41.012Z,98177.50
2023-03-28T05:54:07.578Z,98022.41
2023-03-28T05:56:35.776Z,98119.34
2023-03-28T05:59:02.568Z,98140.97
2023-03-28T06:01:29.233Z,98178.97
2023-03-28T06:03:56.052Z,98163.31
2023-03-28T06:06:22.623Z,98062.09
2023-03-28T06:08:49.218Z,98130.13
2023-03-28T06:11:15.738Z,98271.63
2023-03-28T06:13:42.276Z,98195.06
2023-03-28T06:16:09.227Z,98107.81
2023-03-28T06:18:36.014Z,98189.69
2023-03-28T06:21:02.883Z,98098.75
2023-03-28T06:23:29.493Z,98183.81
2023-03-28T06:25:56.212Z,98227.69
2023-03-28T06:28:22.910Z,98233.44
2023-03-28T06:30:49.945Z,98171.31
2023-03-28T06:33:16.591Z,98273.50
2023-03-28T06:35:43.183Z,98296.88
2023-03-28T06:38:09.788Z,98256.91
2023-03-28T06:40:36.331Z,98244.91
2023-03-28T06:43:02.924Z,98165.31
2023-03-28T06:45:29.443Z,98162.84
2023-03-28T06:47:56.199Z,98316.91
2023-03-28T06:50:22.749Z,98236.25
2023-03-28T06:52:49.286Z,98312.38
2023-03-28T06:55:15.856Z,98253.03
2023-03-28T06:57:42.526Z,98273.66
2023-03-28T07:00:09.431Z,98229.25
2023-03-28T07:02:36.057Z,98110.69
2023-03-28T07:05:03.100Z,98251.16
2023-03-28T07:07:29.670Z,98314.31
2023-03-28T07:09:56.351Z,98260.75
2023-03-28T07:12:22.960Z,98215.13
2023-03-28T07:14:49.488Z,98259.59
2023-03-28T07:17:15.999Z,98265.53
2023-03-28T07:19:42.616Z,98329.53
2023-03-28T07:22:09.395Z,98180.56
2023-03-28T07:24:35.937Z,98289.91
2023-03-28T07:27:14.974Z,98161.25
2023-03-28T07:29:42.444Z,98375.03
2023-03-28T07:32:09.048Z,98350.63
2023-03-28T07:34:35.644Z,98234.03
2023-03-28T07:37:02.300Z,98348.78
2023-03-28T07:39:29.630Z,98269.69
2023-03-28T07:41:56.248Z,98140.31
2023-03-28T07:44:22.829Z,98317.72
2023-03-28T07:46:51.266Z,98175.16
2023-03-28T07:49:19.916Z,98293.69
2023-03-28T07:51:47.842Z,98125.84
2023-03-28T07:54:17.791Z,98296.31
2023-03-28T07:56:48.021Z,98308.44
2023-03-28T07:59:14.759Z,98364.94
2023-03-28T08:01:42.086Z,98295.41
2023-03-28T08:04:09.468Z,98182.22
2023-03-28T08:06:38.165Z,98129.56
2023-03-28T08:09:08.523Z,98306.84
2023-03-28T08:11:35.613Z,98417.00
2023-03-28T08:14:05.663Z,98355.41
2023-03-28T08:16:32.625Z,98275.00
2023-03-28T08:19:09.810Z,98327.69
2023-03-28T08:21:38.102Z,98295.69
2023-03-28T08:24:04.868Z,98308.38
2023-03-28T08:26:31.384Z,98293.31
2023-03-28T08:28:58.981Z,98335.91
2023-03-28T08:31:26.858Z,98154.84
2023-03-28T08:33:54.083Z,98368.06
2023-03-28T08:36:21.444Z,98412.50
2023-03-28T08:38:50.257Z,98371.78
2023-03-28T08:41:40.635Z,98428.06
2023-03-28T08:44:35.268Z,98442.56
2023-03-28T08:47:09.263Z,98439.78
2023-03-28T08:49:42.012Z,98210.53
2023-03-28T08:52:08.617Z,98115.94
2023-03-28T08:54:58.464Z,98439.13
2023-03-28T08:57:29.614Z,98385.50
2023-03-28T09:00:24.644Z,98447.69
2023-03-28T09:02:52.358Z,98460.19
2023-03-28T09:05:51.638Z,98443.34
2023-03-28T09:08:24.259Z,98450.22
2023-03-28T09:11:00.119Z,98448.44
2023-03-28T09:13:51.870Z,98454.44
2023-03-28T09:16:33.853Z,98456.09
2023-03-28T09:19:34.194Z,98460.41
2023-03-28T09:22:37.607Z,98377.53
2023-03-28T09:25:07.355Z,98457.88
2023-03-28T09:27:37.655Z,98383.44
2023-03-28T09:30:17.430Z,98450.22
2023-03-28T09:32:44.145Z,98479.13
2023-03-28T09:35:18.930Z,98405.81
2023-03-28T09:37:58.786Z,98428.75
2023-03-28T09:40:27.099Z,98285.03
2023-03-28T09:43:23.008Z,98454.44
2023-03-28T09:46:05.172Z,98453.63
2023-03-28T09:48:33.472Z,98246.72
2023-03-28T09:51:00.814Z,98353.66
2023-03-28T09:53:34.719Z,98386.75
2023-03-28T09:56:22.921Z,98449.69
2023-03-28T09:58:54.376Z,98344.56
2023-03-28T10:01:37.603Z,98460.34
2023-03-28T10:04:16.138Z,98412.34
2023-03-28T10:06:43.104Z,98222.03
2023-03-28T10:09:27.055Z,98403.81
2023-03-28T10:12:02.105Z,98451.88
2023-03-28T10:14:36.443Z,98282.38
2023-03-28T10:17:13.942Z,98427.88
2023-03-28T10:19:42.858Z,98396.41
2023-03-28T10:22:31.517Z,98457.88
2023-03-28T10:24:58.153Z,98384.84
2023-03-28T10:27:32.698Z,98371.88
2023-03-28T10:30:09.890Z,98325.56
2023-03-28T10:32:36.724Z,98444.25
2023-03-28T10:35:03.388Z,98445.13
2023-03-28T10:37:31.842Z,98155.28
2023-03-28T10:40:06.752Z,98359.06
2023-03-28T10:42:46.950Z,98356.34
2023-03-28T10:45:29.352Z,98400.94
2023-03-28T10:47:57.719Z,98433.84
2023-03-28T10:50:36.627Z,98388.69
2023-03-28T10:53:44.197Z,98456.97
2023-03-28T10:56:41.246Z,98452.78
2023-03-28T10:59:35.732Z,98454.44
2023-03-28T11:02:11.189Z,98447.69
2023-03-28T11:04:58.817Z,98454.44
2023-03-28T11:07:33.070Z,98365.81
2023-03-28T11:10:15.197Z,98422.69
2023-03-28T11:13:01.044Z,98441.69
2023-03-28T11:15:37.349Z,98445.03
2023-03-28T11:18:26.108Z,98443.34
2023-03-28T11:21:12.396Z,98436.59
2023-03-28T11:24:00.633Z,98435.69
2023-03-28T11:26:33.479Z,98259.72
2023-03-28T11:29:40.175Z,98277.38
2023-03-28T11:32:24.708Z,98359.69
2023-03-28T11:35:02.066Z,98365.38
2023-03-28T11:37:32.965Z,98335.41
2023-03-28T11:40:28.221Z,98420.50
2023-03-28T11:43:06.429Z,98325.63
2023-03-28T11:45:51.115Z,98277.00
2023-03-28T11:48:24.305Z,98355.00
2023-03-28T11:51:15.548Z,98401.88
2023-03-28T11:53:57.908Z,98335.13
2023-03-28T11:56:42.100Z,98286.88
2023-03-28T11:59:15.777Z,98314.94
2023-03-28T12:01:45.073Z,98314.94
2023-03-28T12:04:16.060Z,98311.56
2023-03-28T12:07:02.363Z,98400.97
2023-03-28T12:09:50.818Z,98396.75
2023-03-28T12:12:21.685Z,98224.25
2023-03-28T12:15:10.741Z,98397.63
2023-03-28T12:17:52.628Z,98323.31
2023-03-28T12:20:45.242Z,98285.59
2023-03-28T12:23:15.687Z,98225.47
2023-03-28T12:25:50.846Z,98376.38
2023-03-28T12:28:53.821Z,98353.34
2023-03-28T12:31:38.174Z,98374.69
2023-03-28T12:34:41.903Z,98124.66
2023-03-28T12:37:14.770Z,98234.66
2023-03-28T12:39:56.322Z,98333.59
2023-03-28T12:42:23.484Z,98272.16
2023-03-28T12:44:52.727Z,98353.34
2023-03-28T12:47:24.521Z,98355.03
2023-03-28T12:49:54.142Z,98307.78
2023-03-28T12:52:34.240Z,98351.75
2023-03-28T12:55:02.386Z,98321.81
2023-03-28T12:57:41.302Z,98369.56
2023-03-28T13:00:27.037Z,98367.03
2023-03-28T13:03:05.538Z,98308.09
2023-03-28T13:05:57.445Z,98372.13
2023-03-28T13:08:40.926Z,98242.38
2023-03-28T13:11:45.085Z,98365.28
2023-03-28T13:14:17.639Z,98372.94
2023-03-28T13:17:03.080Z,98370.38
2023-03-28T13:19:46.458Z,98254.81
2023-03-28T13:22:22.285Z,98358.44
2023-03-28T13:24:48.819Z,98212.25
2023-03-28T13:27:28.174Z,98232.13
2023-03-28T13:30:17.046Z,98348.25
2023-03-28T13:32:49.360Z,98277.22
2023-03-28T13:36:00.662Z,98338.06
2023-03-28T13:38:27.288Z,98338.06
2023-03-28T13:41:06.332Z,98341.47
2023-03-28T13:43:35.770Z,98341.47
2023-03-28T13:46:09.717Z,98214.91
2023-03-28T13:48:54.482Z,98342.34
2023-03-28T13:51:26.408Z,98333.81
2023-03-28T13:53:52.982Z,98282.63
2023-03-28T13:56:26.307Z,98327.06
2023-03-28T13:58:55.259Z,98176.38
2023-03-28T14:01:24.530Z,98260.44
2023-03-28T14:03:51.651Z,98147.91
2023-03-28T14:06:23.306Z,98206.44
2023-03-28T14:08:51.184Z,98231.63
2023-03-28T14:11:19.719Z,98314.16
2023-03-28T14:13:46.460Z,98144.78
2023-03-28T14:16:13.072Z,98195.06
2023-03-28T14:18:44.820Z,98189.38
2023-03-28T14:21:11.310Z,98158.22
2023-03-28T14:23:39.235Z,98183.50
2023-03-28T14:26:16.421Z,98061.97
2023-03-28T14:28:44.244Z,98198.28
2023-03-28T14:31:14.694Z,98303.44
2023-03-28T14:33:41.923Z,98057.22
2023-03-28T14:36:14.252Z,98170.47
2023-03-28T14:38:41.126Z,98119.69
2023-03-28T14:41:28.396Z,98194.94
2023-03-28T14:43:55.968Z,98101.44
2023-03-28T14:46:24.357Z,98179.41
2023-03-28T14:48:53.758Z,98146.44
2023-03-28T14:51:20.664Z,98155.03
2023-03-28T14:53:49.972Z,98043.34
2023-03-28T14:56:26.545Z,98150.25
2023-03-28T14:58:55.713Z,98125.47
2023-03-28T15:01:25.041Z,98180.09
2023-03-28T15:04:03.579Z,98166.69
2023-03-28T15:06:30.600Z,98275.41
2023-03-28T15:09:01.022Z,98192.91
2023-03-28T15:11:34.162Z,98054.38
2023-03-28T15:14:05.413Z,98195.06
2023-03-28T15:16:32.417Z,98041.19
2023-03-28T15:19:07.075Z,98098.34
2023-03-28T15:21:35.400Z,98172.25
2023-03-28T15:24:04.247Z,98009.03
2023-03-28T15:26:36.798Z,98174.63
2023-03-28T15:29:05.289Z,98219.53
2023-03-28T15:31:32.484Z,98178.75
2023-03-28T15:33:59.341Z,98142.91
2023-03-28T15:36:30.733Z,98124.13
2023-03-28T15:39:02.588Z,98186.34
2023-03-28T15:41:43.154Z,98232.06
2023-03-28T15:44:29.895Z,98136.59
2023-03-28T15:46:59.041Z,98180.88
2023-03-28T15:49:25.746Z,98150.41
2023-03-28T15:51:57.291Z,98170.22
2023-03-28T15:54:31.544Z,98123.63
2023-03-28T15:57:00.648Z,98170.53
2023-03-28T15:59:32.999Z,98168.63
2023-03-28T16:02:24.637Z,98243.16
2023-03-28T16:05:09.976Z,98159.47
2023-03-28T16:07:37.068Z,98234.63
2023-03-28T16:10:03.987Z,98149.06
2023-03-28T16:12:30.717Z,98148.78
2023-03-28T16:14:57.587Z,98042.38
2023-03-28T16:17:25.267Z,98209.84
2023-03-28T16:19:52.068Z,98162.09
2023-03-28T16:22:20.905Z,98163.84
2023-03-28T16:24:50.915Z,98099.97
2023-03-28T16:27:17.828Z,98065.19
2023-03-28T16:29:44.491Z,98207.91
2023-03-28T16:32:14.868Z,98204.41
2023-03-28T16:34:41.958Z,97990.16
2023-03-28T16:37:09.068Z,98179.19
2023-03-28T16:39:38.877Z,98000.72
2023-03-28T16:42:06.218Z,98158.06
2023-03-28T16:44:32.840Z,98098.22
2023-03-28T16:47:00.185Z,98162.63
2023-03-28T16:49:26.897Z,97914.91
2023-03-28T16:51:54.819Z,98082.19
2023-03-28T16:54:22.082Z,98213.44
2023-03-28T16:56:48.688Z,98186.31
2023-03-28T16:59:15.325Z,98133.41
2023-03-28T17:01:43.160Z,98123.78
2023-03-28T17:04:09.852Z,98051.50
2023-03-28T17:06:36.518Z,98070.28
2023-03-28T17:09:04.652Z,98103.47
2023-03-28T17:11:31.594Z,98035.72
2023-03-28T17:13:58.330Z,98117.84
2023-03-28T17:16:24.905Z,98101.81
2023-03-28T17:18:51.431Z,98070.66
2023-03-28T17:21:18.464Z,98154.31
2023-03-28T17:23:46.588Z,97993.75
2023-03-28T17:26:13.335Z,97913.47
2023-03-28T17:28:42.123Z,98009.66
2023-03-28T17:31:19.506Z,98148.25
2023-03-28T17:33:46.560Z,98087.34
2023-03-28T17:36:24.033Z,98181.88
2023-03-28T17:38:51.378Z,98154.50
2023-03-28T17:41:18.366Z,98126.66
2023-03-28T17:43:44.980Z,98081.38
2023-03-28T17:46:12.030Z,98114.47
2023-03-28T17:48:39.197Z,98082.25
2023-03-28T17:51:05.986Z,98152.47
2023-03-28T17:53:32.546Z,97909.00
2023-03-28T17:55:59.919Z,98019.38
2023-03-28T17:58:26.786Z,98092.94
2023-03-28T18:00:53.301Z,98112.16
2023-03-28T18:03:20.301Z,98097.38
2023-03-28T18:05:50.807Z,97938.38
2023-03-28T18:08:17.366Z,97886.03
2023-03-28T18:10:44.110Z,98124.81
2023-03-28T18:13:10.682Z,98047.22
2023-03-28T18:15:40.770Z,98036.88
2023-03-28T18:18:08.581Z,98150.41
2023-03-28T18:20:35.408Z,97888.34
2023-03-28T18:23:01.996Z,98066.09
2023-03-28T18:25:32.377Z,97954.59
2023-03-28T18:27:59.710Z,98004.47
2023-03-28T18:30:27.305Z,98108.44
2023-03-28T18:32:53.956Z,98066.16
2023-03-28T18:35:20.793Z,98025.63
2023-03-28T18:37:47.529Z,97954.94
2023-03-28T18:40:14.508Z,98019.59
2023-03-28T18:42:41.511Z,97901.72
2023-03-28T18:45:08.944Z,98074.66
2023-03-28T18:47:39.113Z,98039.59
2023-03-28T18:50:06.166Z,98082.16
2023-03-28T18:52:32.811Z,98010.69
2023-03-28T18:54:59.578Z,98048.31
2023-03-28T18:57:26.529Z,98008.59
2023-03-28T18:59:55.673Z,98086.09
2023-03-28T19:02:23.281Z,98016.38
2023-03-28T19:04:49.888Z,98003.94
2023-03-28T19:07:16.935Z,97978.13
2023-03-28T19:09:43.904Z,98066.88
2023-03-28T19:12:11.601Z,98033.78
2023-03-28T19:14:38.421Z,98123.25
2023-03-28T19:17:05.241Z,97793.56
2023-03-28T19:19:37.368Z,98067.03
2023-03-28T19:22:05.876Z,97926.88
2023-03-28T19:24:32.647Z,98070.97
2023-03-28T19:27:00.354Z,97794.16
2023-03-28T19:29:28.603Z,97929.56
2023-03-28T19:31:58.320Z,97559.94
2023-03-28T19:34:25.036Z,97844.00
2023-03-28T19:36:51.925Z,97987.16
2023-03-28T19:39:18.590Z,97849.69
2023-03-28T19:41:45.288Z,97609.41
2023-03-28T19:44:11.973Z,97996.16
2023-03-28T19:46:41.922Z,98055.69
2023-03-28T19:49:09.193Z,97776.72
2023-03-28T19:51:38.901Z,97870.06
2023-03-28T19:54:08.258Z,98047.28
2023-03-28T19:56:35.337Z,97938.91
2023-03-28T19:59:02.024Z,97841.50
2023-03-28T20:01:28.846Z,97851.88
2023-03-28T20:03:56.328Z,97280.31
2023-03-28T20:06:23.422Z,97765.69
2023-03-28T20:08:52.679Z,97607.16
2023-03-28T20:11:22.429Z,97738.13
2023-03-28T20:13:49.220Z,97120.94
2023-03-28T20:16:16.348Z,97759.31
2023-03-28T20:18:44.467Z,97382.25
2023-03-28T20:21:11.841Z,97907.56
2023-03-28T20:23:38.567Z,98078.13
2023-03-28T20:26:15.775Z,98101.84
2023-03-28T20:28:42.518Z,98080.66
2023-03-28T20:31:12.871Z,97808.47
2023-03-28T20:33:40.337Z,97225.03
2023-03-28T20:36:07.375Z,97875.34
2023-03-28T20:38:33.955Z,98081.44
2023-03-28T20:41:00.839Z,97947.88
2023-03-28T20:43:29.486Z,98052.31
2023-03-28T20:45:57.389Z,98075.50
2023-03-28T20:48:34.384Z,97993.31
2023-03-28T20:51:03.217Z,97618.56
2023-03-28T20:53:30.741Z,98072.94
2023-03-28T20:56:04.382Z,98072.06
2023-03-28T20:58:31.901Z,97993.75
2023-03-28T21:00:59.068Z,97891.66
2023-03-28T21:03:44.889Z,98053.25
2023-03-28T21:06:12.958Z,98046.50
2023-03-28T21:08:40.283Z,98035.97
2023-03-28T21:11:08.143Z,98035.44
2023-03-28T21:13:34.655Z,97139.03
2023-03-28T21:16:01.660Z,98026.94
2023-03-28T21:18:28.839Z,97912.44
2023-03-28T21:20:56.340Z,98030.31
2023-03-28T21:23:23.086Z,98024.38
2023-03-28T21:25:52.752Z,97750.47
2023-03-28T21:28:19.571Z,98018.41
2023-03-28T21:30:58.065Z,98015.84
2023-03-28T21:33:24.675Z,98009.09
2023-03-28T21:35:51.836Z,97951.28
2023-03-28T21:38:18.721Z,98011.63
2023-03-28T21:40:46.763Z,97687.94
2023-03-28T21:43:13.540Z,98006.53
2023-03-28T21:45:40.196Z,97998.88
2023-03-28T21:48:06.831Z,97909.63
2023-03-28T21:50:33.489Z,97736.25
2023-03-28T21:53:00.326Z,97993.78
2023-03-28T21:55:27.009Z,97995.47
2023-03-28T21:57:53.644Z,97748.56
2023-03-28T22:00:20.762Z,97863.72
2023-03-28T22:02:47.493Z,97992.84
2023-03-28T22:05:26.705Z,97833.22
2023-03-28T22:07:56.144Z,97986.00
2023-03-28T22:10:26.516Z,97202.47
2023-03-28T22:12:58.888Z,97985.19
2023-03-28T22:15:25.750Z,97979.22
2023-03-28T22:17:57.945Z,97733.72
2023-03-28T22:20:28.127Z,97975.00
2023-03-28T22:22:56.073Z,97963.06
2023-03-28T22:25:22.648Z,97507.66
2023-03-28T22:27:49.236Z,97661.41
2023-03-28T22:30:15.790Z,97954.53
2023-03-28T22:32:42.706Z,97960.53
2023-03-28T22:35:11.148Z,97831.56
2023-03-28T22:37:38.213Z,97954.53
2023-03-28T22:40:08.301Z,97830.81
2023-03-28T22:42:34.879Z,97895.19
2023-03-28T22:45:01.847Z,97959.63
2023-03-28T22:47:30.372Z,97957.16
2023-03-28T22:49:59.752Z,97963.06
2023-03-28T22:52:26.288Z,97952.88
2023-03-28T22:54:53.124Z,97717.09
2023-03-28T22:57:19.856Z,97950.31
2023-03-28T22:59:46.707Z,97956.28
2023-03-28T23:02:13.382Z,96954.09
2023-03-28T23:04:40.226Z,97886.75
2023-03-28T23:07:06.971Z,97753.69
2023-03-28T23:09:33.871Z,97951.19
2023-03-28T23:12:02.001Z,97633.84
2023-03-28T23:14:28.716Z,97952.88
2023-03-28T23:16:55.283Z,97859.03
2023-03-28T23:19:22.496Z,97964.72
2023-03-28T23:21:50.295Z,97870.94
2023-03-28T23:24:16.881Z,97222.00
2023-03-28T23:26:43.625Z,97152.41
2023-03-28T23:29:10.170Z,97553.78
2023-03-28T23:31:36.741Z,97855.13
2023-03-28T23:34:03.330Z,97987.59
2023-03-28T23:36:32.848Z,97993.59
2023-03-28T23:38:59.550Z,97101.94
2023-03-28T23:41:26.272Z,98001.22
2023-03-28T23:43:52.898Z,97868.66
2023-03-28T23:46:19.604Z,97499.50
2023-03-28T23:48:46.372Z,98008.88
2023-03-28T23:51:13.416Z,97357.22
2023-03-28T23:53:40.280Z,98006.31
2023-03-28T23:56:08.026Z,98008.00
2023-03-28T23:58:34.607Z,98007.19
